Home > Products > Valid Products > MTR

000
SAUS44 KEWX 211952
MTRATT
METAR KATT 211951Z AUTO VRB03KT 10SM OVC017 13/09 A2997 RMK AO2
SLP149 T01280089





000
SAUS44 KEWX 211853
MTRATT
METAR KATT 211851Z AUTO 15005KT 10SM OVC017 13/08 A3001 RMK AO2
SLP164 T01280083





000
SAUS44 KEWX 211752
MTRATT
METAR KATT 211751Z AUTO 16006KT 10SM OVC016 12/08 A3007 RMK AO2
SLP181 T01170078 10122 20100 58019





000
SAUS44 KEWX 211653
MTRATT
METAR KATT 211651Z AUTO 15004KT 10SM OVC016 11/08 A3010 RMK AO2
SLP194 T01110078





000
SAUS44 KEWX 211553
MTRATT
METAR KATT 211551Z AUTO 14006KT 10SM OVC019 11/08 A3011 RMK AO2
SLP195 T01110078





000
SAUS44 KEWX 211452
MTRATT
METAR KATT 211451Z AUTO 00000KT 9SM OVC019 11/08 A3012 RMK AO2
SLP201 T01060078 51007





000
SAUS44 KEWX 211352
MTRATT
METAR KATT 211351Z AUTO 16003KT 9SM OVC018 10/08 A3012 RMK AO2
SLP199 T01000078





000
SAUS44 KEWX 211352
MTRATT
METAR KATT 211351Z AUTO 16003KT 9SM OVC018 10/08 A3012 RMK AO2
SLP199 T01000078





000
SAUS44 KEWX 211252
MTRATT
METAR KATT 211251Z AUTO 15004KT 9SM OVC019 10/08 A3011 RMK AO2
SLP197 T01000078





000
SAUS44 KEWX 211252
MTRATT
METAR KATT 211251Z AUTO 15004KT 9SM OVC019 10/08 A3011 RMK AO2
SLP197 T01000078





000
SAUS44 KEWX 211153
MTRATT
METAR KATT 211151Z AUTO 12003KT 9SM OVC019 10/08 A3010 RMK AO2
SLP194 T01000078 10100 20100 58012





000
SAUS44 KEWX 211153
MTRATT
METAR KATT 211151Z AUTO 12003KT 9SM OVC019 10/08 A3010 RMK AO2
SLP194 T01000078 10100 20100 58012





000
SAUS44 KEWX 211052
MTRATT
METAR KATT 211051Z AUTO 14003KT 8SM OVC017 10/08 A3011 RMK AO2
SLP198 T01000083





000
SAUS44 KEWX 211052
MTRATT
METAR KATT 211051Z AUTO 14003KT 8SM OVC017 10/08 A3011 RMK AO2
SLP198 T01000083





000
SAUS44 KEWX 211019
MTRATT
SPECI KATT 211017Z AUTO 00000KT 6SM BR FEW009 OVC017 10/08 A3012 RMK
AO2 T01000083





000
SAUS44 KEWX 211019
MTRATT
SPECI KATT 211017Z AUTO 00000KT 6SM BR FEW009 OVC017 10/08 A3012 RMK
AO2 T01000083





000
SAUS44 KEWX 210953
MTRATT
METAR KATT 210951Z AUTO 12003KT 6SM BR OVC019 10/08 A3013 RMK AO2
SLP204 T01000083





000
SAUS44 KEWX 210953
MTRATT
METAR KATT 210951Z AUTO 12003KT 6SM BR OVC019 10/08 A3013 RMK AO2
SLP204 T01000083





000
SAUS44 KEWX 210953
MTRATT
METAR KATT 210951Z AUTO 12003KT 6SM BR OVC019 10/08 A3013 RMK AO2
SLP204 T01000083





000
SAUS44 KEWX 210853
MTRATT
METAR KATT 210851Z AUTO 11003KT 5SM BR OVC020 10/09 A3014 RMK AO2
SLP206 T01000089 58014





000
SAUS44 KEWX 210752
MTRATT
METAR KATT 210751Z AUTO 00000KT 5SM BR FEW008 OVC022 10/09 A3016 RMK
AO2 SLP212 T01000089





000
SAUS44 KEWX 210703
MTRATT
SPECI KATT 210702Z AUTO 12004KT 5SM BR FEW008 FEW014 OVC023 10/08
A3017 RMK AO2 T01000083





000
SAUS44 KEWX 210652
MTRATT
METAR KATT 210651Z AUTO 00000KT 5SM BR OVC023 10/08 A3017 RMK AO2
SLP218 T01000083





000
SAUS44 KEWX 210652
MTRATT
METAR KATT 210651Z AUTO 00000KT 5SM BR OVC023 10/08 A3017 RMK AO2
SLP218 T01000083





000
SAUS44 KEWX 210627
MTRATT
SPECI KATT 210626Z AUTO 14003KT 5SM BR SCT007 OVC022 10/09 A3018 RMK
AO2 T01000089





000
SAUS44 KEWX 210552
MTRATT
METAR KATT 210551Z AUTO VRB03KT 5SM BR BKN008 OVC025 10/08 A3018 RMK
AO2 SLP220 T01000083 10111 20100 401220094 56003





000
SAUS44 KEWX 210452
MTRATT
METAR KATT 210451Z AUTO 00000KT 5SM BR FEW009 OVC026 10/08 A3018 RMK
AO2 SLP221 T01000083





000
SAUS44 KEWX 210452
MTRATT
METAR KATT 210451Z AUTO 00000KT 5SM BR FEW009 OVC026 10/08 A3018 RMK
AO2 SLP221 T01000083





000
SAUS44 KEWX 210423
MTRATT
SPECI KATT 210421Z AUTO 00000KT 6SM BR FEW009 OVC027 10/08 A3018 RMK
AO2 T01000083





000
SAUS44 KEWX 210423
MTRATT
SPECI KATT 210421Z AUTO 00000KT 6SM BR FEW009 OVC027 10/08 A3018 RMK
AO2 T01000083





000
SAUS44 KEWX 210352
MTRATT
METAR KATT 210351Z AUTO 04003KT 6SM BR OVC025 10/08 A3019 RMK AO2
SLP223 T01000083





000
SAUS44 KEWX 210352
MTRATT
METAR KATT 210351Z AUTO 04003KT 6SM BR OVC025 10/08 A3019 RMK AO2
SLP223 T01000083





000
SAUS44 KEWX 210253
MTRATT
METAR KATT 210251Z AUTO 00000KT 6SM BR OVC027 10/08 A3019 RMK AO2
SLP225 T01000083 51007





000
SAUS44 KEWX 210153
MTRATT
METAR KATT 210151Z AUTO VRB03KT 7SM OVC027 11/08 A3019 RMK AO2
SLP224 T01060078





000
SAUS44 KEWX 210053
MTRATT
METAR KATT 210051Z AUTO VRB06KT 9SM SCT015 OVC025 11/08 A3018 RMK
AO2 SLP220 T01060078





000
SAUS44 KEWX 202352
MTRATT
METAR KATT 202351Z AUTO 08004KT 10SM OVC027 11/08 A3017 RMK AO2
SLP216 T01110078 10122 20111 53002





000
SAUS44 KEWX 202253
MTRATT
METAR KATT 202251Z AUTO VRB03KT 10SM OVC021 12/08 A3016 RMK AO2
SLP213 T01170078





000
SAUS44 KEWX 202153
MTRATT
METAR KATT 202151Z AUTO VRB03KT 10SM OVC023 12/07 A3015 RMK AO2
SLP210 T01220072





000
SAUS44 KEWX 202052
MTRATT
METAR KATT 202051Z AUTO VRB03KT 10SM OVC023 12/07 A3016 RMK AO2
SLP214 T01220072 56028





000
SAUS44 KEWX 201953
MTRATT
METAR KATT 201951Z AUTO 34003KT 10SM OVC020 12/07 A3018 RMK AO2
SLP221 T01170072





000
SAUS44 KEWX 201852
MTRATT
METAR KATT 201851Z AUTO VRB03KT 10SM OVC020 12/07 A3021 RMK AO2
SLP231 T01170072





000
SAUS44 KEWX 201752
MTRATT
METAR KATT 201751Z AUTO 33003KT 10SM OVC019 11/07 A3024 RMK AO2
SLP242 T01110072 10111 20094 58004





000
SAUS44 KEWX 201652
MTRATT
METAR KATT 201651Z AUTO 32003KT 10SM OVC016 11/07 A3026 RMK AO2
SLP248 T01060072





000
SAUS44 KEWX 201650
MTRATT
SPECI KATT 201649Z AUTO 32004KT 10SM OVC016 11/07 A3026 RMK AO2





000
SAUS44 KEWX 201632
MTRATT
SPECI KATT 201630Z AUTO 32003KT 10SM OVC014 10/07 A3026 RMK AO2
T01000072





000
SAUS44 KEWX 201553
MTRATT
METAR KATT 201551Z AUTO 00000KT 10SM OVC016 10/07 A3026 RMK AO2
SLP247 T01000072





000
SAUS44 KEWX 201452
MTRATT
METAR KATT 201451Z AUTO 00000KT 10SM OVC016 10/07 A3025 RMK AO2
SLP244 T01000072 51017





000
SAUS44 KEWX 201352
MTRATT
METAR KATT 201351Z AUTO 00000KT 10SM OVC015 09/07 A3023 RMK AO2
SLP239 T00940067





000
SAUS44 KEWX 201252
MTRATT
METAR KATT 201251Z AUTO 36003KT 10SM OVC015 09/07 A3022 RMK AO2
SLP235 T00940067





000
SAUS44 KEWX 201153
MTRATT
METAR KATT 201151Z AUTO VRB03KT 10SM OVC015 09/07 A3020 RMK AO2
SLP226 70005 T00940067 10100 20094 53002





000
SAUS44 KEWX 201052
MTRATT
METAR KATT 201051Z AUTO 01005KT 10SM OVC015 09/07 A3018 RMK AO2
SLP222 T00940067





000
SAUS44 KEWX 200953
MTRATT
METAR KATT 200951Z AUTO VRB03KT 10SM OVC015 09/07 A3020 RMK AO2
SLP227 T00940067





000
SAUS44 KEWX 200852
MTRATT
METAR KATT 200851Z AUTO 00000KT 10SM OVC017 09/07 A3019 RMK AO2
SLP224 T00940072 58004





000
SAUS44 KEWX 200752
MTRATT
METAR KATT 200751Z AUTO 00000KT 10SM OVC019 09/07 A3020 RMK AO2
SLP226 T00940072





000
SAUS44 KEWX 200752
MTRATT
METAR KATT 200751Z AUTO 00000KT 10SM OVC019 09/07 A3020 RMK AO2
SLP226 T00940072





000
SAUS44 KEWX 200653
MTRATT
METAR KATT 200651Z AUTO 32004KT 10SM OVC018 09/07 A3020 RMK AO2
SLP227 T00940067





000
SAUS44 KEWX 200552
MTRATT
METAR KATT 200551Z AUTO 35004KT 10SM OVC015 10/07 A3020 RMK AO2
SLP228 T01000067 10111 20094 401390089 50005





000
SAUS44 KEWX 200544
MTRATT
SPECI KATT 200543Z AUTO 36004KT 10SM OVC015 09/07 A3020 RMK AO2
T00940067





000
SAUS44 KEWX 200453
MTRATT
METAR KATT 200451Z AUTO VRB05KT 10SM OVC013 09/07 A3020 RMK AO2
SLP228 T00940067





000
SAUS44 KEWX 200352
MTRATT
METAR KATT 200351Z AUTO VRB05KT 10SM OVC011 09/07 A3020 RMK AO2
SLP226 T00940072





000
SAUS44 KEWX 200352
MTRATT
METAR KATT 200351Z AUTO VRB05KT 10SM OVC011 09/07 A3020 RMK AO2
SLP226 T00940072





000
SAUS44 KEWX 200252
MTRATT
METAR KATT 200251Z AUTO VRB06KT 10SM OVC010 10/08 A3019 RMK AO2
SLP224 T01000078 51016





000
SAUS44 KEWX 200153
MTRATT
METAR KATT 200151Z AUTO 01005KT 10SM OVC010 10/08 A3018 RMK AO2
SLP220 T01000078





000
SAUS44 KEWX 200153
MTRATT
METAR KATT 200151Z AUTO 01005KT 10SM OVC010 10/08 A3018 RMK AO2
SLP220 T01000078





000
SAUS44 KEWX 200053
MTRATT
METAR KATT 200051Z AUTO 01009G15KT 10SM OVC012 11/08 A3016 RMK AO2
SLP215 T01060078





000
SAUS44 KEWX 192352
MTRATT
METAR KATT 192351Z AUTO 35007KT 10SM OVC014 11/08 A3014 RMK AO2
SLP206 T01110083 10139 20111 51013





000
SAUS44 KEWX 192343
MTRATT
SPECI KATT 192341Z AUTO VRB03KT 10SM OVC014 12/08 A3013 RMK AO2
T01170083





000
SAUS44 KEWX 192252
MTRATT
METAR KATT 192251Z AUTO 36005KT 10SM OVC016 12/08 A3013 RMK AO2
SLP203 T01220083





000
SAUS44 KEWX 192153
MTRATT
METAR KATT 192151Z AUTO 36006KT 10SM OVC017 13/09 A3011 RMK AO2
SLP197 T01280089





000
SAUS44 KEWX 192052
MTRATT
METAR KATT 192051Z AUTO 01007KT 10SM OVC017 13/09 A3010 RMK AO2
SLP193 T01330089 56012





000
SAUS44 KEWX 191953
MTRATT
METAR KATT 191951Z AUTO VRB06KT 10SM OVC016 13/09 A3010 RMK AO2
SLP193 T01330094





000
SAUS44 KEWX 191953
MTRATT
METAR KATT 191951Z AUTO VRB06KT 10SM OVC016 13/09 A3010 RMK AO2
SLP193 T01330094





000
SAUS44 KEWX 191852
MTRATT
METAR KATT 191851Z AUTO 02007KT 10SM OVC016 13/09 A3011 RMK AO2
SLP198 T01280089





000
SAUS44 KEWX 191803
MTRATT
SPECI KATT 191802Z AUTO 04006KT 10SM OVC016 13/09 A3013 RMK AO2
T01330094





000
SAUS44 KEWX 191752
MTRATT
METAR KATT 191751Z AUTO VRB06KT 10SM OVC014 13/09 A3013 RMK AO2
SLP205 60005 T01280094 10133 20089 58001





000
SAUS44 KEWX 191652
MTRATT
METAR KATT 191651Z AUTO 01007KT 340V060 10SM BKN011 OVC060 12/09
A3015 RMK AO2 SLP209 T01220094





000
SAUS44 KEWX 191620
MTRATT
SPECI KATT 191619Z AUTO 01006KT 10SM BKN010 OVC015 12/09 A3014 RMK
AO2 T01170094





000
SAUS44 KEWX 191552
MTRATT
METAR KATT 191551Z AUTO VRB03KT 10SM BKN009 OVC065 11/10 A3014 RMK
AO2 SLP206 T01110100





000
SAUS44 KEWX 191549
MTRATT
SPECI KATT 191548Z AUTO 01006KT 10SM OVC009 11/09 A3014 RMK AO2





000
SAUS44 KEWX 191513
MTRATT
SPECI KATT 191512Z AUTO VRB04KT 10SM BKN011 OVC046 11/09 A3013 RMK
AO2 T01060094





000
SAUS44 KEWX 191452
MTRATT
METAR KATT 191451Z AUTO VRB05KT 10SM FEW011 OVC045 10/09 A3013 RMK
AO2 SLP204 60005 T01000094 53005





000
SAUS44 KEWX 191352
MTRATT
METAR KATT 191351Z AUTO 01007KT 10SM FEW010 BKN041 OVC047 09/08
A3012 RMK AO2 RAE10 SLP200 P0000 T00940083





000
SAUS44 KEWX 191347
MTRATT
SPECI KATT 191346Z AUTO VRB06KT 10SM SCT010 OVC041 09/08 A3012 RMK
AO2 RAE10 P0000





000
SAUS44 KEWX 191315
MTRATT
SPECI KATT 191314Z AUTO 35006G17KT 9SM OVC010 09/08 A3012 RMK AO2
RAE10 CIG 007V014 P0000 T00940083





000
SAUS44 KEWX 191252
MTRATT
METAR KATT 191251Z AUTO 35008G17KT 5SM -RA BR BKN009 OVC012 09/08
A3012 RMK AO2 RAB1153 CIG 005V011 SLP199 P0005 T00940083





000
SAUS44 KEWX 191241
MTRATT
SPECI KATT 191239Z AUTO 36006KT 3SM -RA BR OVC009 09/09 A3012 RMK
AO2 RAB1153 CIG 005V012 P0005 T00940089





000
SAUS44 KEWX 191223
MTRATT
SPECI KATT 191222Z AUTO 35007KT 2 1/2SM -RA BR OVC007 09/09 A3012
RMK AO2 RAB1153 CIG 005V010 P0003 T00940089





000
SAUS44 KEWX 191152
MTRATT
METAR KATT 191151Z AUTO 34006KT 5SM BR OVC007 09/09 A3009 RMK AO2
RAB26E47 PRESRR SLP190 P0000 60054 70054 T00940089 10106 20094 53005





000
SAUS44 KEWX 191053
MTRATT
METAR KATT 191051Z AUTO 36006KT 7SM OVC007 09/09 A3006 RMK AO2 RAE44
SLP178 P0009 T00940089





000
SAUS44 KEWX 190952
MTRATT
METAR KATT 190951Z AUTO 01005KT 9SM -RA OVC008 09/09 A3007 RMK AO2
TSE10 SLP182 P0001 T00940089





000
SAUS44 KEWX 190952
MTRATT
METAR KATT 190951Z AUTO 01005KT 9SM -RA OVC008 09/09 A3007 RMK AO2
TSE10 SLP182 P0001 T00940089





000
SAUS44 KEWX 190922
MTRATT
SPECI KATT 190920Z AUTO VRB05KT 7SM -RA OVC008 09/09 A3007 RMK AO2
TSE10 CIG 007V013 P0001 T00940089





000
SAUS44 KEWX 190922
MTRATT
SPECI KATT 190920Z AUTO VRB05KT 7SM -RA OVC008 09/09 A3007 RMK AO2
TSE10 CIG 007V013 P0001 T00940089





000
SAUS44 KEWX 190911
MTRATT
SPECI KATT 190910Z AUTO 36004KT 8SM -RA OVC010 09/09 A3007 RMK AO2
TSE10 CIG 006V011 P0000 T00940089





000
SAUS44 KEWX 190856 COR
MTRATT
METAR KATT 190851Z AUTO 35003KT 4SM -TSRA BR OVC008 09/09 A3008 RMK
AO2 RAB0754 TSB04E40B49B51 SLP184 P0013 60044 T00940089 55015





000
SAUS44 KEWX 190854 COR
MTRATT
METAR KATT 190851Z AUTO 35003KT 4SM -TSRA BR OVC008 09/09 A3008 RMK
AO2 RAB0754 TSB04E40B49B51 SLP184 P0013 60044 T00940089 55015





000
SAUS44 KEWX 190853 COR
MTRATT
METAR KATT 190851Z AUTO 35003KT 4SM -TSRA BR OVC008 09/09 A3008 RMK
AO2 RAB0754 TSB04E40B49B51 SLP184 P0013 60044 T00940089 55015





000
SAUS44 KEWX 190852
MTRATT
METAR KATT 190851Z AUTO 35003KT 4SM -TSRA BR OVC008 09/09 A3008 RMK
AO2 RAB0754 TSB04E40B49B51 SLP184 P0013 60044 T00940089 55015





000
SAUS44 KEWX 190850
MTRATT
SPECI KATT 190849Z AUTO 01004KT 3SM -TSRA BR OVC006 09/09 A3007 RMK
AO2 RAB0754 TSB04E40B49 P0013





000
SAUS44 KEWX 190841
MTRATT
SPECI KATT 190840Z AUTO VRB04KT 2 1/2SM +RA BR BKN008 OVC019 09/09
A3007 RMK AO2 RAB0754 TSB04E40 P0010 T00940089





000
SAUS44 KEWX 190822
MTRATT
SPECI KATT 190821Z AUTO 00000KT 3SM -TSRA BR OVC007 10/09 A3007 RMK
AO2 RAB0754 TSB04 CIG 005V010 P0005 T01000094





000
SAUS44 KEWX 190822
MTRATT
SPECI KATT 190821Z AUTO 00000KT 3SM -TSRA BR OVC007 10/09 A3007 RMK
AO2 RAB0754 TSB04 CIG 005V010 P0005 T01000094





000
SAUS44 KEWX 190808
MTRATT
SPECI KATT 190807Z AUTO 02006KT 2 1/2SM +TSRA BR BKN008 OVC023 10/09
A3007 RMK AO2 RAB0754 TSB04 CIG 005V010 P0003 T01000089





000
SAUS44 KEWX 190752
MTRATT
METAR KATT 190751Z AUTO 36006KT 8SM BKN008 OVC026 10/09 A3006 RMK
AO2 RAE10 SLP179 P0000 T01000089





000
SAUS44 KEWX 190657
MTRATT
SPECI KATT 190656Z AUTO 36006KT 5SM -RA BR BKN007 BKN014 OVC029
09/09 A3009 RMK AO2 P0000 T00940089





000
SAUS44 KEWX 190652
MTRATT
METAR KATT 190651Z AUTO 36005KT 2 1/2SM VCTS -RA BR BKN006 OVC016
10/09 A3010 RMK AO2 RAB0555 TSB28E45 SLP192 P0031 T01000089





000
SAUS44 KEWX 190646
MTRATT
SPECI KATT 190645Z AUTO 36006G15KT 3/4SM VCTS +RA BR BKN006 OVC012
09/09 A3010 RMK AO2 RAB0555 TSB28E45 P0030





000
SAUS44 KEWX 190638
MTRATT
SPECI KATT 190637Z AUTO 36008KT 320V030 1 3/4SM -TSRA BR OVC006
10/09 A3011 RMK AO2 RAB0555 TSB28 P0003 T01000094





000
SAUS44 KEWX 190630
MTRATT
SPECI KATT 190629Z AUTO VRB04G16KT 3SM -TSRA BR OVC006 10/09 A3011
RMK AO2 RAB0555 TSB28 P0003 T01000094





000
SAUS44 KEWX 190620
MTRATT
SPECI KATT 190619Z AUTO VRB06G14KT 2 1/2SM -RA BR OVC006 10/09 A3009
RMK AO2 RAB0555 P0002 T01000094





000
SAUS44 KEWX 190553
MTRATT
METAR KATT 190551Z AUTO VRB03KT 5SM BR OVC006 11/09 A3012 RMK AO2
SLP199 T01060094 10139 20106 401560094 53005





000
SAUS44 KEWX 190452
MTRATT
METAR KATT 190451Z AUTO VRB05G15KT 6SM BR OVC006 11/09 A3009 RMK AO2
SLP189 T01110094





000
SAUS44 KEWX 190353
MTRATT
METAR KATT 190351Z AUTO 02009KT 340V050 6SM BR OVC008 12/10 A3009
RMK AO2 SLP191 T01170100





000
SAUS44 KEWX 190353
MTRATT
METAR KATT 190351Z AUTO 02009KT 340V050 6SM BR OVC008 12/10 A3009
RMK AO2 SLP191 T01170100





000
SAUS44 KEWX 190252
MTRATT
METAR KATT 190251Z AUTO 03006KT 6SM BR OVC006 12/11 A3010 RMK AO2
SLP195 T01170106 53011





000
SAUS44 KEWX 190153
MTRATT
METAR KATT 190151Z AUTO VRB04KT 7SM OVC007 12/11 A3009 RMK AO2
SLP190 T01220106





000
SAUS44 KEWX 190153
MTRATT
METAR KATT 190151Z AUTO VRB04KT 7SM OVC007 12/11 A3009 RMK AO2
SLP190 T01220106





000
SAUS44 KEWX 190052
MTRATT
METAR KATT 190051Z AUTO VRB04KT 7SM OVC008 13/11 A3008 RMK AO2
SLP186 T01280111





000
SAUS44 KEWX 182352
MTRATT
METAR KATT 182351Z AUTO VRB03KT 7SM OVC008 14/12 A3007 RMK AO2
SLP183 T01390122 10156 20139 53003





000
SAUS44 KEWX 182301
MTRATT
SPECI KATT 182301Z AUTO VRB03KT 7SM OVC009 14/12 A3007 RMK AO2
T01440122





000
SAUS44 KEWX 182252
MTRATT
METAR KATT 182251Z AUTO 08004KT 8SM OVC010 14/12 A3006 RMK AO2
SLP178 T01440122





000
SAUS44 KEWX 182152
MTRATT
METAR KATT 182151Z AUTO 00000KT 10SM OVC010 16/13 A3006 RMK AO2
SLP179 T01560128





000
SAUS44 KEWX 182130
MTRATT
SPECI KATT 182129Z AUTO VRB04KT 10SM OVC010 16/13 A3007 RMK AO2
T01560128





000
SAUS44 KEWX 182052
MTRATT
METAR KATT 182051Z AUTO 00000KT 10SM OVC007 16/13 A3006 RMK AO2
SLP179 T01560133 56025





    US Dept of Commerce
    National Oceanic and Atmospheric Administration
    National Weather Service
    1325 East West Highway
    Silver Spring, MD 20910
    Page Author: NWS Internet Services Team
Disclaimer
Information Quality
Credits
Glossary
Privacy Policy
Freedom of Information Act (FOIA)
About Us
Career Opportunities